sensor_id;sensor_type;location;lat;lon;timestamp;temperature;humidity
13405;DHT22;6773;51.192;7.024;2023-04-08T00:01:04;8.00;99.90
13405;DHT22;6773;51.192;7.024;2023-04-08T00:03:30;8.10;99.90
13405;DHT22;6773;51.192;7.024;2023-04-08T00:05:55;8.10;99.90
13405;DHT22;6773;51.192;7.024;2023-04-08T00:08:21;8.10;99.90
13405;DHT22;6773;51.192;7.024;2023-04-08T00:10:46;8.10;99.90
13405;DHT22;6773;51.192;7.024;2023-04-08T00:13:12;8.10;99.90
13405;DHT22;6773;51.192;7.024;2023-04-08T00:15:40;8.00;99.90
13405;DHT22;6773;51.192;7.024;2023-04-08T00:18:06;8.00;99.90
13405;DHT22;6773;51.192;7.024;2023-04-08T00:20:32;8.10;99.90
13405;DHT22;6773;51.192;7.024;2023-04-08T00:22:57;8.00;99.90
13405;DHT22;6773;51.192;7.024;2023-04-08T00:25:23;8.10;99.90
13405;DHT22;6773;51.192;7.024;2023-04-08T00:27:49;8.10;99.90
13405;DHT22;6773;51.192;7.024;2023-04-08T00:30:15;8.10;99.90
13405;DHT22;6773;51.192;7.024;2023-04-08T00:32:40;8.10;99.90
13405;DHT22;6773;51.192;7.024;2023-04-08T00:35:06;8.10;99.90
13405;DHT22;6773;51.192;7.024;2023-04-08T00:37:32;8.10;99.90
13405;DHT22;6773;51.192;7.024;2023-04-08T00:39:58;8.10;99.90
13405;DHT22;6773;51.192;7.024;2023-04-08T00:42:24;8.10;99.90
13405;DHT22;6773;51.192;7.024;2023-04-08T00:44:50;8.20;99.90
13405;DHT22;6773;51.192;7.024;2023-04-08T00:47:15;8.10;99.90
13405;DHT22;6773;51.192;7.024;2023-04-08T00:49:42;8.20;99.90
13405;DHT22;6773;51.192;7.024;2023-04-08T00:54:36;8.20;99.90
13405;DHT22;6773;51.192;7.024;2023-04-08T00:57:02;8.20;99.90
13405;DHT22;6773;51.192;7.024;2023-04-08T00:59:29;8.20;99.90
13405;DHT22;6773;51.192;7.024;2023-04-08T01:02:01;8.20;99.90
13405;DHT22;6773;51.192;7.024;2023-04-08T01:07:36;8.30;99.90
13405;DHT22;6773;51.192;7.024;2023-04-08T01:10:15;8.30;99.90
13405;DHT22;6773;51.192;7.024;2023-04-08T01:13:05;8.20;99.90
13405;DHT22;6773;51.192;7.024;2023-04-08T01:15:35;8.30;99.90
13405;DHT22;6773;51.192;7.024;2023-04-08T01:18:05;8.30;99.90
13405;DHT22;6773;51.192;7.024;2023-04-08T01:20:31;8.30;99.90
13405;DHT22;6773;51.192;7.024;2023-04-08T01:25:56;8.30;99.90
13405;DHT22;6773;51.192;7.024;2023-04-08T01:28:24;8.30;99.90
13405;DHT22;6773;51.192;7.024;2023-04-08T01:30:51;8.30;99.90
13405;DHT22;6773;51.192;7.024;2023-04-08T01:33:20;8.30;99.90
13405;DHT22;6773;51.192;7.024;2023-04-08T01:35:46;8.30;99.90
13405;DHT22;6773;51.192;7.024;2023-04-08T01:38:18;8.30;99.90
13405;DHT22;6773;51.192;7.024;2023-04-08T01:40:45;8.30;99.90
13405;DHT22;6773;51.192;7.024;2023-04-08T01:43:14;8.30;99.90
13405;DHT22;6773;51.192;7.024;2023-04-08T01:45:44;8.30;99.90
13405;DHT22;6773;51.192;7.024;2023-04-08T01:48:12;8.30;99.90
13405;DHT22;6773;51.192;7.024;2023-04-08T01:50:41;8.30;99.90
13405;DHT22;6773;51.192;7.024;2023-04-08T01:53:09;8.30;99.90
13405;DHT22;6773;51.192;7.024;2023-04-08T01:55:35;8.30;99.90
13405;DHT22;6773;51.192;7.024;2023-04-08T01:58:01;8.30;99.90
13405;DHT22;6773;51.192;7.024;2023-04-08T02:00:30;8.30;99.90
13405;DHT22;6773;51.192;7.024;2023-04-08T02:02:57;8.40;99.90
13405;DHT22;6773;51.192;7.024;2023-04-08T02:07:50;8.40;99.90
13405;DHT22;6773;51.192;7.024;2023-04-08T02:10:16;8.40;99.90
13405;DHT22;6773;51.192;7.024;2023-04-08T02:12:42;8.40;99.90
13405;DHT22;6773;51.192;7.024;2023-04-08T02:15:09;8.40;99.90
13405;DHT22;6773;51.192;7.024;2023-04-08T02:17:48;8.40;99.90
13405;DHT22;6773;51.192;7.024;2023-04-08T02:20:31;8.40;99.90
13405;DHT22;6773;51.192;7.024;2023-04-08T02:23:08;8.40;99.90
13405;DHT22;6773;51.192;7.024;2023-04-08T02:25:37;8.40;99.90
13405;DHT22;6773;51.192;7.024;2023-04-08T02:28:06;8.30;99.90
13405;DHT22;6773;51.192;7.024;2023-04-08T02:30:35;8.40;99.90
13405;DHT22;6773;51.192;7.024;2023-04-08T02:33:03;8.40;99.90
13405;DHT22;6773;51.192;7.024;2023-04-08T02:35:30;8.30;99.90
13405;DHT22;6773;51.192;7.024;2023-04-08T02:37:55;8.30;99.90
13405;DHT22;6773;51.192;7.024;2023-04-08T02:40:32;8.30;99.90
13405;DHT22;6773;51.192;7.024;2023-04-08T02:43:00;8.40;99.90
13405;DHT22;6773;51.192;7.024;2023-04-08T02:45:32;8.40;99.90
13405;DHT22;6773;51.192;7.024;2023-04-08T02:47:59;8.30;99.90
13405;DHT22;6773;51.192;7.024;2023-04-08T02:50:25;8.30;99.90
13405;DHT22;6773;51.192;7.024;2023-04-08T02:52:51;8.30;99.90
13405;DHT22;6773;51.192;7.024;2023-04-08T02:55:16;8.30;99.90
13405;DHT22;6773;51.192;7.024;2023-04-08T02:57:42;8.20;99.90
13405;DHT22;6773;51.192;7.024;2023-04-08T03:00:08;8.20;99.90
13405;DHT22;6773;51.192;7.024;2023-04-08T03:02:34;8.20;99.90
13405;DHT22;6773;51.192;7.024;2023-04-08T03:05:00;8.20;99.90
13405;DHT22;6773;51.192;7.024;2023-04-08T03:07:26;8.20;99.90
13405;DHT22;6773;51.192;7.024;2023-04-08T03:09:53;8.20;99.90
13405;DHT22;6773;51.192;7.024;2023-04-08T03:12:20;8.20;99.90
13405;DHT22;6773;51.192;7.024;2023-04-08T03:14:46;8.20;99.90
13405;DHT22;6773;51.192;7.024;2023-04-08T03:17:12;8.20;99.90
13405;DHT22;6773;51.192;7.024;2023-04-08T03:19:37;8.20;99.90
13405;DHT22;6773;51.192;7.024;2023-04-08T03:22:03;8.10;99.90
13405;DHT22;6773;51.192;7.024;2023-04-08T03:26:54;8.10;99.90
13405;DHT22;6773;51.192;7.024;2023-04-08T03:31:46;8.00;99.90
13405;DHT22;6773;51.192;7.024;2023-04-08T03:34:12;8.00;99.90
13405;DHT22;6773;51.192;7.024;2023-04-08T03:36:37;7.90;99.90
13405;DHT22;6773;51.192;7.024;2023-04-08T03:39:03;7.90;99.90
13405;DHT22;6773;51.192;7.024;2023-04-08T03:41:29;7.80;99.90
13405;DHT22;6773;51.192;7.024;2023-04-08T03:46:21;7.80;99.90
13405;DHT22;6773;51.192;7.024;2023-04-08T03:48:47;7.80;99.90
13405;DHT22;6773;51.192;7.024;2023-04-08T03:51:12;7.70;99.90
13405;DHT22;6773;51.192;7.024;2023-04-08T03:53:38;7.80;99.90
13405;DHT22;6773;51.192;7.024;2023-04-08T03:56:04;7.80;99.90
13405;DHT22;6773;51.192;7.024;2023-04-08T03:58:30;7.80;99.90
13405;DHT22;6773;51.192;7.024;2023-04-08T04:00:56;7.80;99.90
13405;DHT22;6773;51.192;7.024;2023-04-08T04:03:22;7.80;99.90
13405;DHT22;6773;51.192;7.024;2023-04-08T04:05:47;7.90;99.90
13405;DHT22;6773;51.192;7.024;2023-04-08T04:08:13;7.90;99.90
13405;DHT22;6773;51.192;7.024;2023-04-08T04:10:39;7.90;99.90
13405;DHT22;6773;51.192;7.024;2023-04-08T04:13:05;7.90;99.90
13405;DHT22;6773;51.192;7.024;2023-04-08T04:15:30;7.80;99.90
13405;DHT22;6773;51.192;7.024;2023-04-08T04:17:56;7.80;99.90
13405;DHT22;6773;51.192;7.024;2023-04-08T04:20:21;7.80;99.90
13405;DHT22;6773;51.192;7.024;2023-04-08T04:22:47;7.80;99.90
13405;DHT22;6773;51.192;7.024;2023-04-08T04:25:13;7.70;99.90
13405;DHT22;6773;51.192;7.024;2023-04-08T04:27:38;7.70;99.90
13405;DHT22;6773;51.192;7.024;2023-04-08T04:30:04;7.80;99.90
13405;DHT22;6773;51.192;7.024;2023-04-08T04:32:31;7.80;99.90
13405;DHT22;6773;51.192;7.024;2023-04-08T04:37:23;7.70;99.90
13405;DHT22;6773;51.192;7.024;2023-04-08T04:42:14;7.60;99.90
13405;DHT22;6773;51.192;7.024;2023-04-08T04:44:40;7.60;99.90
13405;DHT22;6773;51.192;7.024;2023-04-08T04:47:05;7.60;99.90
13405;DHT22;6773;51.192;7.024;2023-04-08T04:49:31;7.60;99.90
13405;DHT22;6773;51.192;7.024;2023-04-08T04:51:57;7.60;99.90
13405;DHT22;6773;51.192;7.024;2023-04-08T04:54:22;7.60;99.90
13405;DHT22;6773;51.192;7.024;2023-04-08T04:56:48;7.50;99.90
13405;DHT22;6773;51.192;7.024;2023-04-08T04:59:13;7.50;99.90
13405;DHT22;6773;51.192;7.024;2023-04-08T05:04:06;7.40;99.90
13405;DHT22;6773;51.192;7.024;2023-04-08T05:06:32;7.30;99.90
13405;DHT22;6773;51.192;7.024;2023-04-08T05:08:57;7.30;99.90
13405;DHT22;6773;51.192;7.024;2023-04-08T05:16:15;7.20;99.90
13405;DHT22;6773;51.192;7.024;2023-04-08T05:18:41;7.20;99.90
13405;DHT22;6773;51.192;7.024;2023-04-08T05:21:07;7.20;99.90
13405;DHT22;6773;51.192;7.024;2023-04-08T05:23:34;7.10;99.90
13405;DHT22;6773;51.192;7.024;2023-04-08T05:25:59;7.10;99.90
13405;DHT22;6773;51.192;7.024;2023-04-08T05:28:25;7.10;99.90
13405;DHT22;6773;51.192;7.024;2023-04-08T05:30:52;7.10;99.90
13405;DHT22;6773;51.192;7.024;2023-04-08T05:33:18;7.10;99.90
13405;DHT22;6773;51.192;7.024;2023-04-08T05:35:44;7.10;99.90
13405;DHT22;6773;51.192;7.024;2023-04-08T05:38:10;7.00;99.90
13405;DHT22;6773;51.192;7.024;2023-04-08T05:40:36;6.90;99.90
13405;DHT22;6773;51.192;7.024;2023-04-08T05:43:02;6.90;99.90
13405;DHT22;6773;51.192;7.024;2023-04-08T05:45:28;6.90;99.90
13405;DHT22;6773;51.192;7.024;2023-04-08T05:47:54;6.90;99.90
13405;DHT22;6773;51.192;7.024;2023-04-08T05:50:19;6.90;99.90
13405;DHT22;6773;51.192;7.024;2023-04-08T05:52:45;6.90;99.90
13405;DHT22;6773;51.192;7.024;2023-04-08T05:55:12;6.90;99.90
13405;DHT22;6773;51.192;7.024;2023-04-08T05:57:38;7.00;99.90
13405;DHT22;6773;51.192;7.024;2023-04-08T06:00:08;7.00;99.90
13405;DHT22;6773;51.192;7.024;2023-04-08T06:02:34;7.00;99.90
13405;DHT22;6773;51.192;7.024;2023-04-08T06:07:27;7.00;99.90
13405;DHT22;6773;51.192;7.024;2023-04-08T06:12:18;7.00;99.90
13405;DHT22;6773;51.192;7.024;2023-04-08T06:14:44;6.90;99.90
13405;DHT22;6773;51.192;7.024;2023-04-08T06:17:09;6.90;99.90
13405;DHT22;6773;51.192;7.024;2023-04-08T06:19:35;6.80;99.90
13405;DHT22;6773;51.192;7.024;2023-04-08T06:24:27;6.90;99.90
13405;DHT22;6773;51.192;7.024;2023-04-08T06:29:21;6.80;99.90
13405;DHT22;6773;51.192;7.024;2023-04-08T06:34:13;6.80;99.90
13405;DHT22;6773;51.192;7.024;2023-04-08T06:36:39;6.80;99.90
13405;DHT22;6773;51.192;7.024;2023-04-08T06:39:05;6.80;99.90
13405;DHT22;6773;51.192;7.024;2023-04-08T06:41:31;6.80;99.90
13405;DHT22;6773;51.192;7.024;2023-04-08T06:43:56;6.80;99.90
13405;DHT22;6773;51.192;7.024;2023-04-08T06:46:22;6.90;99.90
13405;DHT22;6773;51.192;7.024;2023-04-08T06:48:48;6.90;99.90
13405;DHT22;6773;51.192;7.024;2023-04-08T06:53:40;7.00;99.90
13405;DHT22;6773;51.192;7.024;2023-04-08T06:56:05;7.00;99.90
13405;DHT22;6773;51.192;7.024;2023-04-08T06:58:31;7.20;99.90
13405;DHT22;6773;51.192;7.024;2023-04-08T07:00:58;7.30;99.90
13405;DHT22;6773;51.192;7.024;2023-04-08T07:03:24;7.30;99.90
13405;DHT22;6773;51.192;7.024;2023-04-08T07:05:49;7.30;99.90
13405;DHT22;6773;51.192;7.024;2023-04-08T07:08:15;7.30;99.90
13405;DHT22;6773;51.192;7.024;2023-04-08T07:10:41;7.30;99.90
13405;DHT22;6773;51.192;7.024;2023-04-08T07:15:32;7.30;99.90
13405;DHT22;6773;51.192;7.024;2023-04-08T07:17:58;7.30;99.90
13405;DHT22;6773;51.192;7.024;2023-04-08T07:20:24;7.30;99.90
13405;DHT22;6773;51.192;7.024;2023-04-08T07:22:50;7.40;99.90
13405;DHT22;6773;51.192;7.024;2023-04-08T07:25:16;7.40;99.90
13405;DHT22;6773;51.192;7.024;2023-04-08T07:27:42;7.30;99.90
13405;DHT22;6773;51.192;7.024;2023-04-08T07:30:08;7.40;99.90
13405;DHT22;6773;51.192;7.024;2023-04-08T07:32:34;7.40;99.90
13405;DHT22;6773;51.192;7.024;2023-04-08T07:35:00;7.40;99.90
13405;DHT22;6773;51.192;7.024;2023-04-08T07:37:26;7.40;99.90
13405;DHT22;6773;51.192;7.024;2023-04-08T07:39:52;7.40;99.90
13405;DHT22;6773;51.192;7.024;2023-04-08T07:42:17;7.40;99.90
13405;DHT22;6773;51.192;7.024;2023-04-08T07:44:44;7.50;99.90
13405;DHT22;6773;51.192;7.024;2023-04-08T07:47:10;7.60;99.90
13405;DHT22;6773;51.192;7.024;2023-04-08T07:49:36;7.60;99.90
13405;DHT22;6773;51.192;7.024;2023-04-08T07:52:03;7.60;99.90
13405;DHT22;6773;51.192;7.024;2023-04-08T07:54:30;7.70;99.90
13405;DHT22;6773;51.192;7.024;2023-04-08T07:56:56;7.70;99.90
13405;DHT22;6773;51.192;7.024;2023-04-08T07:59:21;7.80;99.90
13405;DHT22;6773;51.192;7.024;2023-04-08T08:01:47;7.70;99.90
13405;DHT22;6773;51.192;7.024;2023-04-08T08:11:31;8.00;99.90
13405;DHT22;6773;51.192;7.024;2023-04-08T08:13:57;8.10;99.90
13405;DHT22;6773;51.192;7.024;2023-04-08T08:16:22;8.00;99.90
13405;DHT22;6773;51.192;7.024;2023-04-08T08:18:51;8.00;99.90
13405;DHT22;6773;51.192;7.024;2023-04-08T08:21:17;7.90;99.90
13405;DHT22;6773;51.192;7.024;2023-04-08T08:23:42;8.00;99.90
13405;DHT22;6773;51.192;7.024;2023-04-08T08:26:09;8.00;99.90
13405;DHT22;6773;51.192;7.024;2023-04-08T08:28:35;8.10;99.90
13405;DHT22;6773;51.192;7.024;2023-04-08T08:31:01;8.10;99.90
13405;DHT22;6773;51.192;7.024;2023-04-08T08:33:27;8.20;99.90
13405;DHT22;6773;51.192;7.024;2023-04-08T08:35:53;8.30;99.90
13405;DHT22;6773;51.192;7.024;2023-04-08T08:45:41;8.60;99.90
13405;DHT22;6773;51.192;7.024;2023-04-08T08:48:09;8.70;99.90
13405;DHT22;6773;51.192;7.024;2023-04-08T08:53:01;8.60;99.90
13405;DHT22;6773;51.192;7.024;2023-04-08T08:55:31;8.60;99.90
13405;DHT22;6773;51.192;7.024;2023-04-08T08:58:01;8.70;99.90
13405;DHT22;6773;51.192;7.024;2023-04-08T09:00:34;8.70;99.90
13405;DHT22;6773;51.192;7.024;2023-04-08T09:03:23;8.80;99.90
13405;DHT22;6773;51.192;7.024;2023-04-08T09:05:57;8.80;99.90
13405;DHT22;6773;51.192;7.024;2023-04-08T09:08:33;9.10;99.90
13405;DHT22;6773;51.192;7.024;2023-04-08T09:13:39;9.30;99.90
13405;DHT22;6773;51.192;7.024;2023-04-08T09:16:10;9.40;99.90
13405;DHT22;6773;51.192;7.024;2023-04-08T09:18:39;9.60;99.90
13405;DHT22;6773;51.192;7.024;2023-04-08T09:21:07;9.70;99.90
13405;DHT22;6773;51.192;7.024;2023-04-08T09:23:50;9.80;99.90
13405;DHT22;6773;51.192;7.024;2023-04-08T09:26:17;10.00;99.90
13405;DHT22;6773;51.192;7.024;2023-04-08T09:29:02;10.20;99.90
13405;DHT22;6773;51.192;7.024;2023-04-08T09:31:29;10.20;99.90
13405;DHT22;6773;51.192;7.024;2023-04-08T09:33:59;10.10;99.90
13405;DHT22;6773;51.192;7.024;2023-04-08T09:36:27;10.20;99.90
13405;DHT22;6773;51.192;7.024;2023-04-08T09:38:53;10.10;99.90
13405;DHT22;6773;51.192;7.024;2023-04-08T09:43:50;9.90;99.90
13405;DHT22;6773;51.192;7.024;2023-04-08T09:46:17;9.80;99.90
13405;DHT22;6773;51.192;7.024;2023-04-08T09:48:57;9.90;99.90
13405;DHT22;6773;51.192;7.024;2023-04-08T09:51:31;9.80;99.90
13405;DHT22;6773;51.192;7.024;2023-04-08T09:54:03;9.70;99.90
13405;DHT22;6773;51.192;7.024;2023-04-08T09:56:39;9.80;99.90
13405;DHT22;6773;51.192;7.024;2023-04-08T09:59:13;9.80;99.90
13405;DHT22;6773;51.192;7.024;2023-04-08T10:01:45;9.90;99.90
13405;DHT22;6773;51.192;7.024;2023-04-08T10:04:15;10.00;99.90
13405;DHT22;6773;51.192;7.024;2023-04-08T10:06:53;10.10;99.90
13405;DHT22;6773;51.192;7.024;2023-04-08T10:09:21;10.20;99.90
13405;DHT22;6773;51.192;7.024;2023-04-08T10:11:47;10.30;99.90
13405;DHT22;6773;51.192;7.024;2023-04-08T10:14:13;10.40;99.90
13405;DHT22;6773;51.192;7.024;2023-04-08T10:16:38;10.50;99.90
13405;DHT22;6773;51.192;7.024;2023-04-08T10:19:57;10.80;99.90
13405;DHT22;6773;51.192;7.024;2023-04-08T10:27:42;11.50;99.90
13405;DHT22;6773;51.192;7.024;2023-04-08T10:32:52;12.50;99.90
13405;DHT22;6773;51.192;7.024;2023-04-08T10:35:30;12.50;99.90
13405;DHT22;6773;51.192;7.024;2023-04-08T10:37:58;12.60;99.90
13405;DHT22;6773;51.192;7.024;2023-04-08T10:40:24;12.60;99.90
13405;DHT22;6773;51.192;7.024;2023-04-08T10:42:56;12.60;99.90
13405;DHT22;6773;51.192;7.024;2023-04-08T10:45:22;12.50;99.90
13405;DHT22;6773;51.192;7.024;2023-04-08T10:47:48;12.40;99.90
13405;DHT22;6773;51.192;7.024;2023-04-08T10:50:14;12.50;99.90
13405;DHT22;6773;51.192;7.024;2023-04-08T10:52:50;12.10;99.90
13405;DHT22;6773;51.192;7.024;2023-04-08T10:55:22;11.80;99.90
13405;DHT22;6773;51.192;7.024;2023-04-08T10:57:49;11.50;99.90
13405;DHT22;6773;51.192;7.024;2023-04-08T11:00:31;11.30;99.90
13405;DHT22;6773;51.192;7.024;2023-04-08T11:03:04;11.10;99.90
13405;DHT22;6773;51.192;7.024;2023-04-08T11:05:31;11.10;99.90
13405;DHT22;6773;51.192;7.024;2023-04-08T11:07:57;11.10;99.90
13405;DHT22;6773;51.192;7.024;2023-04-08T11:10:24;11.20;99.90
13405;DHT22;6773;51.192;7.024;2023-04-08T11:12:50;11.10;99.90
13405;DHT22;6773;51.192;7.024;2023-04-08T11:15:16;11.30;99.90
13405;DHT22;6773;51.192;7.024;2023-04-08T11:17:42;11.30;99.90
13405;DHT22;6773;51.192;7.024;2023-04-08T11:20:09;11.40;99.90
13405;DHT22;6773;51.192;7.024;2023-04-08T11:22:35;11.50;99.90
13405;DHT22;6773;51.192;7.024;2023-04-08T11:25:01;11.40;99.90
13405;DHT22;6773;51.192;7.024;2023-04-08T11:27:27;11.30;99.90
13405;DHT22;6773;51.192;7.024;2023-04-08T11:29:54;11.30;99.90
13405;DHT22;6773;51.192;7.024;2023-04-08T11:32:21;11.20;99.90
13405;DHT22;6773;51.192;7.024;2023-04-08T11:34:48;11.00;99.90
13405;DHT22;6773;51.192;7.024;2023-04-08T11:37:14;10.90;99.90
13405;DHT22;6773;51.192;7.024;2023-04-08T11:39:42;10.70;99.90
13405;DHT22;6773;51.192;7.024;2023-04-08T11:42:08;10.70;99.90
13405;DHT22;6773;51.192;7.024;2023-04-08T11:44:33;10.60;99.90
13405;DHT22;6773;51.192;7.024;2023-04-08T11:46:59;10.60;99.90
13405;DHT22;6773;51.192;7.024;2023-04-08T11:49:26;10.50;99.90
13405;DHT22;6773;51.192;7.024;2023-04-08T11:51:57;10.40;99.00
13405;DHT22;6773;51.192;7.024;2023-04-08T11:54:28;10.40;97.80
13405;DHT22;6773;51.192;7.024;2023-04-08T11:56:53;10.30;97.50
13405;DHT22;6773;51.192;7.024;2023-04-08T11:59:20;10.20;97.20
13405;DHT22;6773;51.192;7.024;2023-04-08T12:01:46;10.30;98.10
13405;DHT22;6773;51.192;7.024;2023-04-08T12:04:11;10.40;98.50
13405;DHT22;6773;51.192;7.024;2023-04-08T12:06:37;10.40;99.10
13405;DHT22;6773;51.192;7.024;2023-04-08T12:11:28;10.50;99.90
13405;DHT22;6773;51.192;7.024;2023-04-08T12:13:54;10.40;99.80
13405;DHT22;6773;51.192;7.024;2023-04-08T12:16:21;10.60;99.90
13405;DHT22;6773;51.192;7.024;2023-04-08T12:18:46;10.80;99.90
13405;DHT22;6773;51.192;7.024;2023-04-08T12:21:12;11.00;99.90
13405;DHT22;6773;51.192;7.024;2023-04-08T12:23:38;11.10;99.90
13405;DHT22;6773;51.192;7.024;2023-04-08T12:26:03;11.20;99.90
13405;DHT22;6773;51.192;7.024;2023-04-08T12:28:29;11.10;99.90
13405;DHT22;6773;51.192;7.024;2023-04-08T12:30:55;11.30;99.90
13405;DHT22;6773;51.192;7.024;2023-04-08T12:33:21;11.20;99.90
13405;DHT22;6773;51.192;7.024;2023-04-08T12:35:46;11.30;99.90
13405;DHT22;6773;51.192;7.024;2023-04-08T12:38:12;11.40;99.90
13405;DHT22;6773;51.192;7.024;2023-04-08T12:40:38;11.30;99.90
13405;DHT22;6773;51.192;7.024;2023-04-08T12:43:04;11.30;99.90
13405;DHT22;6773;51.192;7.024;2023-04-08T12:45:29;11.30;99.90
13405;DHT22;6773;51.192;7.024;2023-04-08T12:47:55;11.40;99.90
13405;DHT22;6773;51.192;7.024;2023-04-08T12:52:47;11.70;99.90
13405;DHT22;6773;51.192;7.024;2023-04-08T12:55:13;12.00;99.90
13405;DHT22;6773;51.192;7.024;2023-04-08T12:57:39;12.10;99.90
13405;DHT22;6773;51.192;7.024;2023-04-08T13:00:05;12.40;99.90
13405;DHT22;6773;51.192;7.024;2023-04-08T13:02:31;12.60;99.90
13405;DHT22;6773;51.192;7.024;2023-04-08T13:04:57;12.40;99.90
13405;DHT22;6773;51.192;7.024;2023-04-08T13:07:22;12.40;99.90
13405;DHT22;6773;51.192;7.024;2023-04-08T13:09:48;12.20;99.90
13405;DHT22;6773;51.192;7.024;2023-04-08T13:12:13;12.40;99.90
13405;DHT22;6773;51.192;7.024;2023-04-08T13:17:06;12.40;99.90
13405;DHT22;6773;51.192;7.024;2023-04-08T13:21:58;12.20;99.90
13405;DHT22;6773;51.192;7.024;2023-04-08T13:24:23;12.30;99.90
13405;DHT22;6773;51.192;7.024;2023-04-08T13:26:49;12.40;99.90
13405;DHT22;6773;51.192;7.024;2023-04-08T13:31:42;12.50;99.90
13405;DHT22;6773;51.192;7.024;2023-04-08T13:34:08;12.60;99.90
13405;DHT22;6773;51.192;7.024;2023-04-08T13:36:34;12.70;99.90
13405;DHT22;6773;51.192;7.024;2023-04-08T13:41:25;12.60;99.90
13405;DHT22;6773;51.192;7.024;2023-04-08T13:43:52;12.60;99.90
13405;DHT22;6773;51.192;7.024;2023-04-08T13:46:18;12.50;99.90
13405;DHT22;6773;51.192;7.024;2023-04-08T13:48:43;12.40;99.90
13405;DHT22;6773;51.192;7.024;2023-04-08T13:53:36;12.40;99.90
13405;DHT22;6773;51.192;7.024;2023-04-08T13:56:01;12.30;99.90
13405;DHT22;6773;51.192;7.024;2023-04-08T13:58:27;12.40;99.90
13405;DHT22;6773;51.192;7.024;2023-04-08T14:03:18;12.50;99.90
13405;DHT22;6773;51.192;7.024;2023-04-08T14:05:44;12.80;99.90
13405;DHT22;6773;51.192;7.024;2023-04-08T14:08:10;13.10;99.90
13405;DHT22;6773;51.192;7.024;2023-04-08T14:10:37;13.40;99.90
13405;DHT22;6773;51.192;7.024;2023-04-08T14:13:03;13.50;99.90
13405;DHT22;6773;51.192;7.024;2023-04-08T14:15:29;13.40;99.90
13405;DHT22;6773;51.192;7.024;2023-04-08T14:17:54;13.30;99.90
13405;DHT22;6773;51.192;7.024;2023-04-08T14:20:20;13.20;99.90
13405;DHT22;6773;51.192;7.024;2023-04-08T14:22:45;13.10;99.90
13405;DHT22;6773;51.192;7.024;2023-04-08T14:25:11;13.00;99.90
13405;DHT22;6773;51.192;7.024;2023-04-08T14:27:37;12.90;99.90
13405;DHT22;6773;51.192;7.024;2023-04-08T14:30:02;12.60;99.90
13405;DHT22;6773;51.192;7.024;2023-04-08T14:32:28;12.30;99.90
13405;DHT22;6773;51.192;7.024;2023-04-08T14:37:20;12.00;99.90
13405;DHT22;6773;51.192;7.024;2023-04-08T14:39:45;11.90;99.90
13405;DHT22;6773;51.192;7.024;2023-04-08T14:42:11;11.80;99.90
13405;DHT22;6773;51.192;7.024;2023-04-08T14:44:37;11.90;99.90
13405;DHT22;6773;51.192;7.024;2023-04-08T14:47:02;11.90;99.90
13405;DHT22;6773;51.192;7.024;2023-04-08T14:49:28;11.90;99.90
13405;DHT22;6773;51.192;7.024;2023-04-08T14:51:53;12.00;99.90
13405;DHT22;6773;51.192;7.024;2023-04-08T14:54:19;12.00;99.90
13405;DHT22;6773;51.192;7.024;2023-04-08T14:56:45;12.00;99.90
13405;DHT22;6773;51.192;7.024;2023-04-08T14:59:11;12.00;99.90
13405;DHT22;6773;51.192;7.024;2023-04-08T15:01:36;12.00;99.90
13405;DHT22;6773;51.192;7.024;2023-04-08T15:08:55;12.00;99.90
13405;DHT22;6773;51.192;7.024;2023-04-08T15:11:20;11.80;99.90
13405;DHT22;6773;51.192;7.024;2023-04-08T15:13:46;11.70;99.90
13405;DHT22;6773;51.192;7.024;2023-04-08T15:16:12;11.70;99.90
13405;DHT22;6773;51.192;7.024;2023-04-08T15:18:37;11.80;99.90
13405;DHT22;6773;51.192;7.024;2023-04-08T15:21:03;11.80;99.90
13405;DHT22;6773;51.192;7.024;2023-04-08T15:25:55;11.70;99.90
13405;DHT22;6773;51.192;7.024;2023-04-08T15:30:51;11.50;99.90
13405;DHT22;6773;51.192;7.024;2023-04-08T15:33:17;11.30;99.90
13405;DHT22;6773;51.192;7.024;2023-04-08T15:35:46;11.10;99.90
13405;DHT22;6773;51.192;7.024;2023-04-08T15:38:12;11.00;99.90
13405;DHT22;6773;51.192;7.024;2023-04-08T15:40:38;10.80;99.90
13405;DHT22;6773;51.192;7.024;2023-04-08T15:43:03;10.70;99.90
13405;DHT22;6773;51.192;7.024;2023-04-08T15:45:29;10.70;99.90
13405;DHT22;6773;51.192;7.024;2023-04-08T15:47:55;10.70;99.90
13405;DHT22;6773;51.192;7.024;2023-04-08T15:50:20;10.70;99.90
13405;DHT22;6773;51.192;7.024;2023-04-08T15:52:46;10.70;99.90
13405;DHT22;6773;51.192;7.024;2023-04-08T15:55:11;10.80;99.90
13405;DHT22;6773;51.192;7.024;2023-04-08T15:57:37;10.80;99.90
13405;DHT22;6773;51.192;7.024;2023-04-08T16:00:09;10.80;99.90
13405;DHT22;6773;51.192;7.024;2023-04-08T16:02:36;10.80;99.90
13405;DHT22;6773;51.192;7.024;2023-04-08T16:05:01;10.80;99.90
13405;DHT22;6773;51.192;7.024;2023-04-08T16:09:53;10.70;99.90
13405;DHT22;6773;51.192;7.024;2023-04-08T16:12:19;10.70;99.90
13405;DHT22;6773;51.192;7.024;2023-04-08T16:14:44;10.70;99.90
13405;DHT22;6773;51.192;7.024;2023-04-08T16:17:11;10.70;99.90
13405;DHT22;6773;51.192;7.024;2023-04-08T16:19:37;10.60;99.90
13405;DHT22;6773;51.192;7.024;2023-04-08T16:22:02;10.50;99.90
13405;DHT22;6773;51.192;7.024;2023-04-08T16:24:28;10.40;99.90
13405;DHT22;6773;51.192;7.024;2023-04-08T16:26:54;10.40;99.90
13405;DHT22;6773;51.192;7.024;2023-04-08T16:29:19;10.30;99.90
13405;DHT22;6773;51.192;7.024;2023-04-08T16:34:13;10.30;99.90
13405;DHT22;6773;51.192;7.024;2023-04-08T16:36:38;10.30;99.90
13405;DHT22;6773;51.192;7.024;2023-04-08T16:39:04;10.30;99.90
13405;DHT22;6773;51.192;7.024;2023-04-08T16:41:30;10.40;99.90
13405;DHT22;6773;51.192;7.024;2023-04-08T16:43:55;10.40;99.90
13405;DHT22;6773;51.192;7.024;2023-04-08T16:46:22;10.40;99.90
13405;DHT22;6773;51.192;7.024;2023-04-08T16:48:47;10.40;99.90
13405;DHT22;6773;51.192;7.024;2023-04-08T16:53:39;10.90;99.90
13405;DHT22;6773;51.192;7.024;2023-04-08T16:56:14;11.20;99.90
13405;DHT22;6773;51.192;7.024;2023-04-08T16:58:41;11.40;99.90
13405;DHT22;6773;51.192;7.024;2023-04-08T17:01:10;11.60;99.90
13405;DHT22;6773;51.192;7.024;2023-04-08T17:03:38;11.60;99.90
13405;DHT22;6773;51.192;7.024;2023-04-08T17:06:07;11.50;99.90
13405;DHT22;6773;51.192;7.024;2023-04-08T17:08:33;11.50;99.90
13405;DHT22;6773;51.192;7.024;2023-04-08T17:11:10;11.30;99.90
13405;DHT22;6773;51.192;7.024;2023-04-08T17:13:36;11.20;99.90
13405;DHT22;6773;51.192;7.024;2023-04-08T17:16:03;11.10;99.90
13405;DHT22;6773;51.192;7.024;2023-04-08T17:18:28;11.00;99.90
13405;DHT22;6773;51.192;7.024;2023-04-08T17:20:54;10.90;99.90
13405;DHT22;6773;51.192;7.024;2023-04-08T17:23:20;10.70;99.90
13405;DHT22;6773;51.192;7.024;2023-04-08T17:28:12;10.60;99.90
13405;DHT22;6773;51.192;7.024;2023-04-08T17:30:37;10.40;99.90
13405;DHT22;6773;51.192;7.024;2023-04-08T17:33:04;10.30;99.90
13405;DHT22;6773;51.192;7.024;2023-04-08T17:35:30;10.20;99.90
13405;DHT22;6773;51.192;7.024;2023-04-08T17:37:56;10.10;99.90
13405;DHT22;6773;51.192;7.024;2023-04-08T17:40:21;10.00;99.90
13405;DHT22;6773;51.192;7.024;2023-04-08T17:45:13;9.90;99.90
13405;DHT22;6773;51.192;7.024;2023-04-08T17:47:40;9.80;99.90
13405;DHT22;6773;51.192;7.024;2023-04-08T17:50:07;9.80;99.90
13405;DHT22;6773;51.192;7.024;2023-04-08T17:52:32;9.70;99.90
13405;DHT22;6773;51.192;7.024;2023-04-08T17:57:24;9.50;99.90